sensor_id;sensor_type;location;lat;lon;timestamp;P1;durP1;ratioP1;P2;durP2;ratioP2
27412;SDS011;14871;52.702;5.230;2023-09-07T00:01:25;4.57;;;3.78;;
27412;SDS011;14871;52.702;5.230;2023-09-07T00:03:50;4.53;;;3.35;;
27412;SDS011;14871;52.702;5.230;2023-09-07T00:06:16;5.50;;;4.10;;
27412;SDS011;14871;52.702;5.230;2023-09-07T00:08:42;5.22;;;3.80;;
27412;SDS011;14871;52.702;5.230;2023-09-07T00:11:08;6.63;;;3.88;;
27412;SDS011;14871;52.702;5.230;2023-09-07T00:13:37;5.70;;;4.20;;
27412;SDS011;14871;52.702;5.230;2023-09-07T00:16:03;6.53;;;4.18;;
27412;SDS011;14871;52.702;5.230;2023-09-07T00:18:30;6.00;;;3.90;;
27412;SDS011;14871;52.702;5.230;2023-09-07T00:20:56;5.20;;;4.18;;
27412;SDS011;14871;52.702;5.230;2023-09-07T00:23:22;4.75;;;3.90;;
27412;SDS011;14871;52.702;5.230;2023-09-07T00:25:47;5.38;;;4.68;;
27412;SDS011;14871;52.702;5.230;2023-09-07T00:28:13;7.72;;;4.70;;
27412;SDS011;14871;52.702;5.230;2023-09-07T00:30:39;6.80;;;4.95;;
27412;SDS011;14871;52.702;5.230;2023-09-07T00:33:05;5.88;;;4.90;;
27412;SDS011;14871;52.702;5.230;2023-09-07T00:35:31;7.85;;;5.53;;
27412;SDS011;14871;52.702;5.230;2023-09-07T00:37:56;6.60;;;5.55;;
27412;SDS011;14871;52.702;5.230;2023-09-07T00:40:22;8.48;;;5.70;;
27412;SDS011;14871;52.702;5.230;2023-09-07T00:42:48;7.57;;;6.22;;
27412;SDS011;14871;52.702;5.230;2023-09-07T00:45:14;7.47;;;5.13;;
27412;SDS011;14871;52.702;5.230;2023-09-07T00:47:40;8.75;;;5.90;;
27412;SDS011;14871;52.702;5.230;2023-09-07T00:50:06;7.40;;;6.35;;
27412;SDS011;14871;52.702;5.230;2023-09-07T00:52:32;12.00;;;7.38;;
27412;SDS011;14871;52.702;5.230;2023-09-07T00:55:02;7.65;;;6.47;;
27412;SDS011;14871;52.702;5.230;2023-09-07T00:57:30;7.47;;;6.55;;
27412;SDS011;14871;52.702;5.230;2023-09-07T00:59:57;8.73;;;7.00;;
27412;SDS011;14871;52.702;5.230;2023-09-07T01:02:23;11.15;;;7.68;;
27412;SDS011;14871;52.702;5.230;2023-09-07T01:04:50;10.10;;;7.80;;
27412;SDS011;14871;52.702;5.230;2023-09-07T01:09:51;10.63;;;8.80;;
27412;SDS011;14871;52.702;5.230;2023-09-07T01:12:21;11.45;;;9.27;;
27412;SDS011;14871;52.702;5.230;2023-09-07T01:14:46;13.52;;;9.00;;
27412;SDS011;14871;52.702;5.230;2023-09-07T01:17:12;14.65;;;9.73;;
27412;SDS011;14871;52.702;5.230;2023-09-07T01:19:38;10.10;;;8.48;;
27412;SDS011;14871;52.702;5.230;2023-09-07T01:22:05;9.13;;;7.38;;
27412;SDS011;14871;52.702;5.230;2023-09-07T01:24:33;10.07;;;7.88;;
27412;SDS011;14871;52.702;5.230;2023-09-07T01:27:00;14.80;;;7.95;;
27412;SDS011;14871;52.702;5.230;2023-09-07T01:29:28;10.70;;;7.22;;
27412;SDS011;14871;52.702;5.230;2023-09-07T01:31:54;11.25;;;8.32;;
27412;SDS011;14871;52.702;5.230;2023-09-07T01:34:20;11.27;;;8.13;;
27412;SDS011;14871;52.702;5.230;2023-09-07T01:36:46;12.38;;;8.35;;
27412;SDS011;14871;52.702;5.230;2023-09-07T01:39:11;15.68;;;9.07;;
27412;SDS011;14871;52.702;5.230;2023-09-07T01:41:37;15.80;;;9.88;;
27412;SDS011;14871;52.702;5.230;2023-09-07T01:44:02;13.50;;;8.82;;
27412;SDS011;14871;52.702;5.230;2023-09-07T01:46:28;14.18;;;8.88;;
27412;SDS011;14871;52.702;5.230;2023-09-07T01:48:54;15.18;;;9.45;;
27412;SDS011;14871;52.702;5.230;2023-09-07T01:51:20;13.80;;;9.43;;
27412;SDS011;14871;52.702;5.230;2023-09-07T01:53:48;14.55;;;9.60;;
27412;SDS011;14871;52.702;5.230;2023-09-07T01:56:17;15.57;;;9.80;;
27412;SDS011;14871;52.702;5.230;2023-09-07T01:58:42;16.30;;;9.40;;
27412;SDS011;14871;52.702;5.230;2023-09-07T02:01:19;11.35;;;8.43;;
27412;SDS011;14871;52.702;5.230;2023-09-07T02:03:49;11.88;;;8.98;;
27412;SDS011;14871;52.702;5.230;2023-09-07T02:06:15;13.65;;;9.00;;
27412;SDS011;14871;52.702;5.230;2023-09-07T02:08:40;14.52;;;9.38;;
27412;SDS011;14871;52.702;5.230;2023-09-07T02:11:06;14.52;;;10.57;;
27412;SDS011;14871;52.702;5.230;2023-09-07T02:13:32;13.48;;;9.30;;
27412;SDS011;14871;52.702;5.230;2023-09-07T02:15:57;12.10;;;8.85;;
27412;SDS011;14871;52.702;5.230;2023-09-07T02:18:23;16.30;;;9.18;;
27412;SDS011;14871;52.702;5.230;2023-09-07T02:20:48;16.92;;;10.23;;
27412;SDS011;14871;52.702;5.230;2023-09-07T02:23:14;14.82;;;9.23;;
27412;SDS011;14871;52.702;5.230;2023-09-07T02:25:40;14.40;;;9.80;;
27412;SDS011;14871;52.702;5.230;2023-09-07T02:28:06;20.02;;;11.30;;
27412;SDS011;14871;52.702;5.230;2023-09-07T02:30:31;19.60;;;12.35;;
27412;SDS011;14871;52.702;5.230;2023-09-07T02:32:57;20.52;;;12.45;;
27412;SDS011;14871;52.702;5.230;2023-09-07T02:35:23;21.17;;;12.30;;
27412;SDS011;14871;52.702;5.230;2023-09-07T02:37:48;21.95;;;12.45;;
27412;SDS011;14871;52.702;5.230;2023-09-07T02:40:14;19.70;;;11.80;;
27412;SDS011;14871;52.702;5.230;2023-09-07T02:42:41;27.02;;;13.60;;
27412;SDS011;14871;52.702;5.230;2023-09-07T02:45:10;21.77;;;12.65;;
27412;SDS011;14871;52.702;5.230;2023-09-07T02:47:37;22.30;;;12.18;;
27412;SDS011;14871;52.702;5.230;2023-09-07T02:50:04;15.85;;;10.43;;
27412;SDS011;14871;52.702;5.230;2023-09-07T02:52:30;15.05;;;9.95;;
27412;SDS011;14871;52.702;5.230;2023-09-07T02:54:56;13.77;;;9.77;;
27412;SDS011;14871;52.702;5.230;2023-09-07T02:57:21;13.70;;;9.18;;
27412;SDS011;14871;52.702;5.230;2023-09-07T02:59:47;12.98;;;9.80;;
27412;SDS011;14871;52.702;5.230;2023-09-07T03:02:13;12.20;;;9.70;;
27412;SDS011;14871;52.702;5.230;2023-09-07T03:04:38;14.32;;;10.15;;
27412;SDS011;14871;52.702;5.230;2023-09-07T03:07:04;15.32;;;10.30;;
27412;SDS011;14871;52.702;5.230;2023-09-07T03:09:30;17.95;;;10.85;;
27412;SDS011;14871;52.702;5.230;2023-09-07T03:11:55;15.70;;;12.15;;
27412;SDS011;14871;52.702;5.230;2023-09-07T03:14:21;16.77;;;12.68;;
27412;SDS011;14871;52.702;5.230;2023-09-07T03:16:46;21.40;;;13.90;;
27412;SDS011;14871;52.702;5.230;2023-09-07T03:19:15;20.58;;;13.15;;
27412;SDS011;14871;52.702;5.230;2023-09-07T03:21:40;32.70;;;17.30;;
27412;SDS011;14871;52.702;5.230;2023-09-07T03:24:06;30.42;;;17.95;;
27412;SDS011;14871;52.702;5.230;2023-09-07T03:26:35;33.78;;;17.65;;
27412;SDS011;14871;52.702;5.230;2023-09-07T03:29:00;31.67;;;17.92;;
27412;SDS011;14871;52.702;5.230;2023-09-07T03:31:26;30.23;;;17.55;;
27412;SDS011;14871;52.702;5.230;2023-09-07T03:33:51;30.15;;;17.10;;
27412;SDS011;14871;52.702;5.230;2023-09-07T03:36:17;24.83;;;15.93;;
27412;SDS011;14871;52.702;5.230;2023-09-07T03:38:43;21.80;;;13.75;;
27412;SDS011;14871;52.702;5.230;2023-09-07T03:41:09;21.35;;;13.15;;
27412;SDS011;14871;52.702;5.230;2023-09-07T03:43:34;18.75;;;13.82;;
27412;SDS011;14871;52.702;5.230;2023-09-07T03:46:00;14.93;;;12.77;;
27412;SDS011;14871;52.702;5.230;2023-09-07T03:48:25;16.92;;;13.20;;
27412;SDS011;14871;52.702;5.230;2023-09-07T03:50:51;18.88;;;13.52;;
27412;SDS011;14871;52.702;5.230;2023-09-07T03:53:16;16.98;;;13.75;;
27412;SDS011;14871;52.702;5.230;2023-09-07T03:55:44;16.15;;;12.73;;
27412;SDS011;14871;52.702;5.230;2023-09-07T03:58:10;17.70;;;13.02;;
27412;SDS011;14871;52.702;5.230;2023-09-07T04:00:43;15.38;;;12.23;;
27412;SDS011;14871;52.702;5.230;2023-09-07T04:03:09;15.65;;;12.15;;
27412;SDS011;14871;52.702;5.230;2023-09-07T04:05:36;13.82;;;11.13;;
27412;SDS011;14871;52.702;5.230;2023-09-07T04:08:03;12.55;;;11.18;;
27412;SDS011;14871;52.702;5.230;2023-09-07T04:10:29;12.68;;;10.40;;
27412;SDS011;14871;52.702;5.230;2023-09-07T04:12:55;12.40;;;10.60;;
27412;SDS011;14871;52.702;5.230;2023-09-07T04:15:20;14.20;;;11.27;;
27412;SDS011;14871;52.702;5.230;2023-09-07T04:17:46;12.38;;;10.25;;
27412;SDS011;14871;52.702;5.230;2023-09-07T04:20:12;12.25;;;10.35;;
27412;SDS011;14871;52.702;5.230;2023-09-07T04:22:38;12.07;;;9.93;;
27412;SDS011;14871;52.702;5.230;2023-09-07T04:25:05;13.02;;;10.20;;
27412;SDS011;14871;52.702;5.230;2023-09-07T04:27:31;10.98;;;9.88;;
27412;SDS011;14871;52.702;5.230;2023-09-07T04:29:57;11.05;;;9.95;;
27412;SDS011;14871;52.702;5.230;2023-09-07T04:32:22;12.73;;;11.32;;
27412;SDS011;14871;52.702;5.230;2023-09-07T04:34:52;11.27;;;10.27;;
27412;SDS011;14871;52.702;5.230;2023-09-07T04:37:21;12.02;;;10.38;;
27412;SDS011;14871;52.702;5.230;2023-09-07T04:39:50;11.35;;;10.07;;
27412;SDS011;14871;52.702;5.230;2023-09-07T04:42:17;11.43;;;9.85;;
27412;SDS011;14871;52.702;5.230;2023-09-07T04:44:43;12.88;;;10.55;;
27412;SDS011;14871;52.702;5.230;2023-09-07T04:47:09;11.35;;;10.25;;
27412;SDS011;14871;52.702;5.230;2023-09-07T04:49:34;10.90;;;9.65;;
27412;SDS011;14871;52.702;5.230;2023-09-07T04:52:00;12.25;;;10.40;;
27412;SDS011;14871;52.702;5.230;2023-09-07T04:54:25;10.82;;;9.35;;
27412;SDS011;14871;52.702;5.230;2023-09-07T04:56:51;13.30;;;9.82;;
27412;SDS011;14871;52.702;5.230;2023-09-07T04:59:17;12.38;;;9.82;;
27412;SDS011;14871;52.702;5.230;2023-09-07T05:01:42;11.65;;;9.80;;
27412;SDS011;14871;52.702;5.230;2023-09-07T05:04:08;11.40;;;9.55;;
27412;SDS011;14871;52.702;5.230;2023-09-07T05:06:34;11.23;;;9.75;;
27412;SDS011;14871;52.702;5.230;2023-09-07T05:09:02;10.38;;;9.40;;
27412;SDS011;14871;52.702;5.230;2023-09-07T05:11:28;14.18;;;10.00;;
27412;SDS011;14871;52.702;5.230;2023-09-07T05:13:54;12.75;;;9.55;;
27412;SDS011;14871;52.702;5.230;2023-09-07T05:16:20;13.77;;;10.05;;
27412;SDS011;14871;52.702;5.230;2023-09-07T05:18:45;10.98;;;9.45;;
27412;SDS011;14871;52.702;5.230;2023-09-07T05:21:14;11.82;;;10.55;;
27412;SDS011;14871;52.702;5.230;2023-09-07T05:23:40;11.02;;;9.77;;
27412;SDS011;14871;52.702;5.230;2023-09-07T05:26:06;11.40;;;9.88;;
27412;SDS011;14871;52.702;5.230;2023-09-07T05:28:32;13.98;;;9.90;;
27412;SDS011;14871;52.702;5.230;2023-09-07T05:30:58;11.52;;;9.68;;
27412;SDS011;14871;52.702;5.230;2023-09-07T05:33:23;12.73;;;9.05;;
27412;SDS011;14871;52.702;5.230;2023-09-07T05:35:49;12.27;;;9.50;;
27412;SDS011;14871;52.702;5.230;2023-09-07T05:38:15;14.40;;;9.73;;
27412;SDS011;14871;52.702;5.230;2023-09-07T05:40:41;12.35;;;9.82;;
27412;SDS011;14871;52.702;5.230;2023-09-07T05:43:09;20.13;;;10.80;;
27412;SDS011;14871;52.702;5.230;2023-09-07T05:45:40;19.88;;;10.18;;
27412;SDS011;14871;52.702;5.230;2023-09-07T05:48:07;17.38;;;10.70;;
27412;SDS011;14871;52.702;5.230;2023-09-07T05:50:36;17.05;;;10.63;;
27412;SDS011;14871;52.702;5.230;2023-09-07T05:53:03;16.42;;;10.02;;
27412;SDS011;14871;52.702;5.230;2023-09-07T05:55:29;16.73;;;10.77;;
27412;SDS011;14871;52.702;5.230;2023-09-07T05:57:56;14.35;;;10.95;;
27412;SDS011;14871;52.702;5.230;2023-09-07T06:00:22;17.20;;;9.45;;
27412;SDS011;14871;52.702;5.230;2023-09-07T06:02:48;10.65;;;9.20;;
27412;SDS011;14871;52.702;5.230;2023-09-07T06:05:14;14.00;;;9.45;;
27412;SDS011;14871;52.702;5.230;2023-09-07T06:07:40;15.13;;;9.88;;
27412;SDS011;14871;52.702;5.230;2023-09-07T06:10:06;15.45;;;9.75;;
27412;SDS011;14871;52.702;5.230;2023-09-07T06:12:32;9.65;;;8.68;;
27412;SDS011;14871;52.702;5.230;2023-09-07T06:14:59;12.88;;;9.27;;
27412;SDS011;14871;52.702;5.230;2023-09-07T06:17:25;15.63;;;10.00;;
27412;SDS011;14871;52.702;5.230;2023-09-07T06:19:51;12.23;;;9.65;;
27412;SDS011;14871;52.702;5.230;2023-09-07T06:22:17;12.35;;;9.68;;
27412;SDS011;14871;52.702;5.230;2023-09-07T06:24:43;12.38;;;9.85;;
27412;SDS011;14871;52.702;5.230;2023-09-07T06:27:08;14.52;;;10.52;;
27412;SDS011;14871;52.702;5.230;2023-09-07T06:29:34;12.52;;;9.35;;
27412;SDS011;14871;52.702;5.230;2023-09-07T06:31:59;11.93;;;8.93;;
27412;SDS011;14871;52.702;5.230;2023-09-07T06:34:25;11.00;;;9.95;;
27412;SDS011;14871;52.702;5.230;2023-09-07T06:36:51;13.63;;;9.75;;
27412;SDS011;14871;52.702;5.230;2023-09-07T06:39:16;12.50;;;9.88;;
27412;SDS011;14871;52.702;5.230;2023-09-07T06:41:45;11.52;;;10.13;;
27412;SDS011;14871;52.702;5.230;2023-09-07T06:44:11;13.15;;;10.55;;
27412;SDS011;14871;52.702;5.230;2023-09-07T06:46:37;12.07;;;10.30;;
27412;SDS011;14871;52.702;5.230;2023-09-07T06:49:02;12.30;;;10.27;;
27412;SDS011;14871;52.702;5.230;2023-09-07T06:51:29;13.00;;;10.70;;
27412;SDS011;14871;52.702;5.230;2023-09-07T06:53:55;15.82;;;12.10;;
27412;SDS011;14871;52.702;5.230;2023-09-07T06:56:21;13.77;;;11.60;;
27412;SDS011;14871;52.702;5.230;2023-09-07T06:58:47;14.32;;;11.57;;
27412;SDS011;14871;52.702;5.230;2023-09-07T07:01:13;17.27;;;11.57;;
27412;SDS011;14871;52.702;5.230;2023-09-07T07:03:38;15.30;;;11.55;;
27412;SDS011;14871;52.702;5.230;2023-09-07T07:06:04;15.95;;;11.30;;
27412;SDS011;14871;52.702;5.230;2023-09-07T07:08:31;21.25;;;12.07;;
27412;SDS011;14871;52.702;5.230;2023-09-07T07:10:56;19.77;;;10.88;;
27412;SDS011;14871;52.702;5.230;2023-09-07T07:13:22;14.48;;;9.68;;
27412;SDS011;14871;52.702;5.230;2023-09-07T07:15:47;13.93;;;10.30;;
27412;SDS011;14871;52.702;5.230;2023-09-07T07:18:13;15.90;;;11.25;;
27412;SDS011;14871;52.702;5.230;2023-09-07T07:20:39;11.95;;;9.57;;
27412;SDS011;14871;52.702;5.230;2023-09-07T07:23:06;16.33;;;10.23;;
27412;SDS011;14871;52.702;5.230;2023-09-07T07:25:32;13.35;;;10.18;;
27412;SDS011;14871;52.702;5.230;2023-09-07T07:28:01;15.75;;;10.02;;
27412;SDS011;14871;52.702;5.230;2023-09-07T07:30:31;14.85;;;10.70;;
27412;SDS011;14871;52.702;5.230;2023-09-07T07:33:01;14.43;;;10.73;;
27412;SDS011;14871;52.702;5.230;2023-09-07T07:35:28;11.40;;;9.48;;
27412;SDS011;14871;52.702;5.230;2023-09-07T07:37:58;12.07;;;8.63;;
27412;SDS011;14871;52.702;5.230;2023-09-07T07:40:23;10.90;;;9.23;;
27412;SDS011;14871;52.702;5.230;2023-09-07T07:42:50;14.20;;;10.60;;
27412;SDS011;14871;52.702;5.230;2023-09-07T07:45:17;11.20;;;9.88;;
27412;SDS011;14871;52.702;5.230;2023-09-07T07:47:45;12.38;;;10.18;;
27412;SDS011;14871;52.702;5.230;2023-09-07T07:50:11;12.95;;;10.07;;
27412;SDS011;14871;52.702;5.230;2023-09-07T07:52:36;13.00;;;10.02;;
27412;SDS011;14871;52.702;5.230;2023-09-07T07:55:02;16.45;;;10.30;;
27412;SDS011;14871;52.702;5.230;2023-09-07T07:57:28;14.82;;;10.93;;
27412;SDS011;14871;52.702;5.230;2023-09-07T07:59:55;15.85;;;10.00;;
27412;SDS011;14871;52.702;5.230;2023-09-07T08:02:21;12.27;;;9.68;;
27412;SDS011;14871;52.702;5.230;2023-09-07T08:04:46;13.45;;;9.45;;
27412;SDS011;14871;52.702;5.230;2023-09-07T08:07:12;12.05;;;9.20;;
27412;SDS011;14871;52.702;5.230;2023-09-07T08:09:38;13.10;;;9.10;;
27412;SDS011;14871;52.702;5.230;2023-09-07T08:12:04;10.70;;;9.05;;
27412;SDS011;14871;52.702;5.230;2023-09-07T08:14:30;12.77;;;8.80;;
27412;SDS011;14871;52.702;5.230;2023-09-07T08:16:56;15.23;;;9.95;;
27412;SDS011;14871;52.702;5.230;2023-09-07T08:19:23;12.25;;;9.95;;
27412;SDS011;14871;52.702;5.230;2023-09-07T08:21:49;12.80;;;10.07;;
27412;SDS011;14871;52.702;5.230;2023-09-07T08:24:15;13.25;;;10.20;;
27412;SDS011;14871;52.702;5.230;2023-09-07T08:26:41;13.18;;;10.95;;
27412;SDS011;14871;52.702;5.230;2023-09-07T08:29:08;13.80;;;11.43;;
27412;SDS011;14871;52.702;5.230;2023-09-07T08:31:36;15.48;;;11.40;;
27412;SDS011;14871;52.702;5.230;2023-09-07T08:34:04;19.15;;;11.57;;
27412;SDS011;14871;52.702;5.230;2023-09-07T08:36:31;20.40;;;13.35;;
27412;SDS011;14871;52.702;5.230;2023-09-07T08:38:59;18.67;;;11.07;;
27412;SDS011;14871;52.702;5.230;2023-09-07T08:41:41;13.13;;;9.50;;
27412;SDS011;14871;52.702;5.230;2023-09-07T08:44:10;12.55;;;8.75;;
27412;SDS011;14871;52.702;5.230;2023-09-07T08:46:36;12.20;;;9.55;;
27412;SDS011;14871;52.702;5.230;2023-09-07T08:49:03;16.80;;;10.93;;
27412;SDS011;14871;52.702;5.230;2023-09-07T08:51:29;14.82;;;11.10;;
27412;SDS011;14871;52.702;5.230;2023-09-07T08:53:59;13.05;;;10.45;;
27412;SDS011;14871;52.702;5.230;2023-09-07T08:56:25;17.77;;;10.70;;
27412;SDS011;14871;52.702;5.230;2023-09-07T08:58:51;12.48;;;9.63;;
27412;SDS011;14871;52.702;5.230;2023-09-07T09:01:17;15.15;;;10.95;;
27412;SDS011;14871;52.702;5.230;2023-09-07T09:03:43;17.33;;;11.18;;
27412;SDS011;14871;52.702;5.230;2023-09-07T09:06:10;15.27;;;10.52;;
27412;SDS011;14871;52.702;5.230;2023-09-07T09:08:46;13.60;;;9.93;;
27412;SDS011;14871;52.702;5.230;2023-09-07T09:11:17;12.18;;;9.95;;
27412;SDS011;14871;52.702;5.230;2023-09-07T09:13:43;15.80;;;8.90;;
27412;SDS011;14871;52.702;5.230;2023-09-07T09:16:10;14.40;;;9.43;;
27412;SDS011;14871;52.702;5.230;2023-09-07T09:18:37;13.23;;;9.00;;
27412;SDS011;14871;52.702;5.230;2023-09-07T09:21:04;11.52;;;8.23;;
27412;SDS011;14871;52.702;5.230;2023-09-07T09:23:34;13.07;;;9.02;;
27412;SDS011;14871;52.702;5.230;2023-09-07T09:26:00;11.82;;;8.23;;
27412;SDS011;14871;52.702;5.230;2023-09-07T09:28:28;10.35;;;8.23;;
27412;SDS011;14871;52.702;5.230;2023-09-07T09:30:56;9.23;;;8.23;;
27412;SDS011;14871;52.702;5.230;2023-09-07T09:33:23;12.05;;;7.68;;
27412;SDS011;14871;52.702;5.230;2023-09-07T09:35:50;10.40;;;7.43;;
27412;SDS011;14871;52.702;5.230;2023-09-07T09:38:17;9.75;;;8.13;;
27412;SDS011;14871;52.702;5.230;2023-09-07T09:40:44;9.90;;;8.25;;
27412;SDS011;14871;52.702;5.230;2023-09-07T09:43:10;12.23;;;9.20;;
27412;SDS011;14871;52.702;5.230;2023-09-07T09:45:37;9.52;;;7.05;;
27412;SDS011;14871;52.702;5.230;2023-09-07T09:48:03;9.07;;;7.28;;
27412;SDS011;14871;52.702;5.230;2023-09-07T09:50:31;10.93;;;7.88;;
27412;SDS011;14871;52.702;5.230;2023-09-07T09:53:02;9.85;;;7.35;;
27412;SDS011;14871;52.702;5.230;2023-09-07T09:55:34;9.50;;;6.82;;
27412;SDS011;14871;52.702;5.230;2023-09-07T09:58:00;10.02;;;7.18;;
27412;SDS011;14871;52.702;5.230;2023-09-07T10:00:27;10.90;;;7.20;;
27412;SDS011;14871;52.702;5.230;2023-09-07T10:06:09;11.50;;;7.05;;
27412;SDS011;14871;52.702;5.230;2023-09-07T10:08:35;10.35;;;7.22;;
27412;SDS011;14871;52.702;5.230;2023-09-07T10:11:01;8.68;;;6.53;;
27412;SDS011;14871;52.702;5.230;2023-09-07T10:13:34;10.68;;;7.18;;
27412;SDS011;14871;52.702;5.230;2023-09-07T10:16:01;11.20;;;7.05;;
27412;SDS011;14871;52.702;5.230;2023-09-07T10:18:34;9.98;;;6.50;;
27412;SDS011;14871;52.702;5.230;2023-09-07T10:21:01;8.63;;;6.22;;
27412;SDS011;14871;52.702;5.230;2023-09-07T10:23:34;7.25;;;6.22;;
27412;SDS011;14871;52.702;5.230;2023-09-07T10:26:02;8.00;;;5.93;;
27412;SDS011;14871;52.702;5.230;2023-09-07T10:28:29;8.63;;;7.45;;
27412;SDS011;14871;52.702;5.230;2023-09-07T10:33:28;8.23;;;5.72;;
27412;SDS011;14871;52.702;5.230;2023-09-07T10:35:55;8.55;;;6.78;;
27412;SDS011;14871;52.702;5.230;2023-09-07T10:38:21;6.90;;;6.07;;
27412;SDS011;14871;52.702;5.230;2023-09-07T10:40:48;7.35;;;6.32;;
27412;SDS011;14871;52.702;5.230;2023-09-07T10:43:19;11.02;;;7.13;;
27412;SDS011;14871;52.702;5.230;2023-09-07T10:45:45;8.85;;;7.68;;
27412;SDS011;14871;52.702;5.230;2023-09-07T10:48:11;9.60;;;8.00;;
27412;SDS011;14871;52.702;5.230;2023-09-07T10:50:44;7.70;;;6.85;;
27412;SDS011;14871;52.702;5.230;2023-09-07T10:53:11;9.30;;;6.75;;
27412;SDS011;14871;52.702;5.230;2023-09-07T10:55:39;10.43;;;7.93;;
27412;SDS011;14871;52.702;5.230;2023-09-07T10:58:06;8.60;;;7.63;;
27412;SDS011;14871;52.702;5.230;2023-09-07T11:00:33;6.90;;;5.63;;
27412;SDS011;14871;52.702;5.230;2023-09-07T11:03:06;7.10;;;6.38;;
27412;SDS011;14871;52.702;5.230;2023-09-07T11:05:36;7.18;;;6.45;;
27412;SDS011;14871;52.702;5.230;2023-09-07T11:08:04;10.18;;;7.32;;
27412;SDS011;14871;52.702;5.230;2023-09-07T11:10:34;8.80;;;6.55;;
27412;SDS011;14871;52.702;5.230;2023-09-07T11:13:04;9.80;;;7.60;;
27412;SDS011;14871;52.702;5.230;2023-09-07T11:15:31;9.23;;;7.80;;
27412;SDS011;14871;52.702;5.230;2023-09-07T11:18:03;9.80;;;6.35;;
27412;SDS011;14871;52.702;5.230;2023-09-07T11:20:33;7.30;;;6.60;;
27412;SDS011;14871;52.702;5.230;2023-09-07T11:23:00;8.25;;;6.25;;
27412;SDS011;14871;52.702;5.230;2023-09-07T11:25:26;8.85;;;6.75;;
27412;SDS011;14871;52.702;5.230;2023-09-07T11:27:52;8.55;;;6.78;;
27412;SDS011;14871;52.702;5.230;2023-09-07T11:30:20;10.05;;;5.80;;
27412;SDS011;14871;52.702;5.230;2023-09-07T11:32:47;10.18;;;5.70;;
27412;SDS011;14871;52.702;5.230;2023-09-07T11:35:12;8.35;;;7.03;;
27412;SDS011;14871;52.702;5.230;2023-09-07T11:37:39;9.50;;;6.82;;
27412;SDS011;14871;52.702;5.230;2023-09-07T11:40:05;10.60;;;7.32;;
27412;SDS011;14871;52.702;5.230;2023-09-07T11:42:37;8.57;;;6.60;;
27412;SDS011;14871;52.702;5.230;2023-09-07T11:45:05;7.88;;;7.13;;
27412;SDS011;14871;52.702;5.230;2023-09-07T11:47:31;9.52;;;6.43;;
27412;SDS011;14871;52.702;5.230;2023-09-07T11:49:57;9.90;;;7.10;;
27412;SDS011;14871;52.702;5.230;2023-09-07T11:52:23;10.23;;;7.50;;
27412;SDS011;14871;52.702;5.230;2023-09-07T11:54:48;10.70;;;6.35;;
27412;SDS011;14871;52.702;5.230;2023-09-07T11:57:14;7.95;;;6.38;;
27412;SDS011;14871;52.702;5.230;2023-09-07T11:59:41;9.50;;;6.10;;
27412;SDS011;14871;52.702;5.230;2023-09-07T12:02:06;8.02;;;5.68;;
27412;SDS011;14871;52.702;5.230;2023-09-07T12:04:32;9.98;;;6.22;;
27412;SDS011;14871;52.702;5.230;2023-09-07T12:06:58;6.55;;;5.20;;
27412;SDS011;14871;52.702;5.230;2023-09-07T12:09:24;7.43;;;5.03;;
27412;SDS011;14871;52.702;5.230;2023-09-07T12:11:49;11.05;;;5.63;;
27412;SDS011;14871;52.702;5.230;2023-09-07T12:14:15;6.10;;;5.47;;
27412;SDS011;14871;52.702;5.230;2023-09-07T12:16:41;8.23;;;6.13;;
27412;SDS011;14871;52.702;5.230;2023-09-07T12:19:06;7.45;;;5.60;;
27412;SDS011;14871;52.702;5.230;2023-09-07T12:21:32;7.40;;;5.32;;
27412;SDS011;14871;52.702;5.230;2023-09-07T12:23:58;7.13;;;5.60;;
27412;SDS011;14871;52.702;5.230;2023-09-07T12:26:23;8.52;;;5.57;;
27412;SDS011;14871;52.702;5.230;2023-09-07T12:28:51;10.98;;;5.50;;
27412;SDS011;14871;52.702;5.230;2023-09-07T12:31:17;6.72;;;4.85;;
27412;SDS011;14871;52.702;5.230;2023-09-07T12:33:42;6.00;;;5.22;;
27412;SDS011;14871;52.702;5.230;2023-09-07T12:36:08;8.15;;;4.90;;
27412;SDS011;14871;52.702;5.230;2023-09-07T12:38:35;8.43;;;4.85;;
27412;SDS011;14871;52.702;5.230;2023-09-07T12:41:01;6.80;;;5.20;;
27412;SDS011;14871;52.702;5.230;2023-09-07T12:43:27;6.28;;;4.47;;
27412;SDS011;14871;52.702;5.230;2023-09-07T12:45:53;6.85;;;4.63;;
27412;SDS011;14871;52.702;5.230;2023-09-07T12:48:20;5.25;;;4.72;;
27412;SDS011;14871;52.702;5.230;2023-09-07T12:50:45;5.82;;;4.32;;
27412;SDS011;14871;52.702;5.230;2023-09-07T12:53:11;10.32;;;5.97;;
27412;SDS011;14871;52.702;5.230;2023-09-07T12:55:37;5.82;;;4.82;;
27412;SDS011;14871;52.702;5.230;2023-09-07T12:58:03;5.30;;;4.80;;
27412;SDS011;14871;52.702;5.230;2023-09-07T13:00:29;5.13;;;4.63;;
27412;SDS011;14871;52.702;5.230;2023-09-07T13:02:55;4.95;;;4.32;;
27412;SDS011;14871;52.702;5.230;2023-09-07T13:05:21;4.97;;;4.32;;
27412;SDS011;14871;52.702;5.230;2023-09-07T13:07:47;6.43;;;4.50;;
27412;SDS011;14871;52.702;5.230;2023-09-07T13:10:13;5.03;;;4.40;;
27412;SDS011;14871;52.702;5.230;2023-09-07T13:12:39;6.15;;;4.40;;
27412;SDS011;14871;52.702;5.230;2023-09-07T13:15:06;6.90;;;4.40;;
27412;SDS011;14871;52.702;5.230;2023-09-07T13:17:32;9.88;;;4.88;;
27412;SDS011;14871;52.702;5.230;2023-09-07T13:19:58;5.85;;;4.85;;
27412;SDS011;14871;52.702;5.230;2023-09-07T13:22:23;6.00;;;4.97;;
27412;SDS011;14871;52.702;5.230;2023-09-07T13:24:49;5.72;;;4.25;;
27412;SDS011;14871;52.702;5.230;2023-09-07T13:27:15;5.85;;;4.55;;
27412;SDS011;14871;52.702;5.230;2023-09-07T13:29:41;4.90;;;4.50;;
27412;SDS011;14871;52.702;5.230;2023-09-07T13:32:06;4.35;;;3.85;;
27412;SDS011;14871;52.702;5.230;2023-09-07T13:34:32;5.68;;;4.50;;
27412;SDS011;14871;52.702;5.230;2023-09-07T13:36:58;4.65;;;4.25;;
27412;SDS011;14871;52.702;5.230;2023-09-07T13:39:23;4.80;;;4.38;;
27412;SDS011;14871;52.702;5.230;2023-09-07T13:41:49;7.15;;;4.60;;
27412;SDS011;14871;52.702;5.230;2023-09-07T13:44:15;5.45;;;4.00;;
27412;SDS011;14871;52.702;5.230;2023-09-07T13:46:41;4.90;;;4.50;;
27412;SDS011;14871;52.702;5.230;2023-09-07T13:49:08;4.78;;;4.22;;
27412;SDS011;14871;52.702;5.230;2023-09-07T13:51:34;8.32;;;5.55;;
27412;SDS011;14871;52.702;5.230;2023-09-07T13:54:06;9.20;;;4.93;;
27412;SDS011;14871;52.702;5.230;2023-09-07T13:56:33;6.15;;;4.63;;
27412;SDS011;14871;52.702;5.230;2023-09-07T13:58:59;7.53;;;5.13;;
27412;SDS011;14871;52.702;5.230;2023-09-07T14:01:25;6.90;;;4.03;;
27412;SDS011;14871;52.702;5.230;2023-09-07T14:03:51;7.78;;;4.32;;
27412;SDS011;14871;52.702;5.230;2023-09-07T14:06:17;5.60;;;4.25;;
27412;SDS011;14871;52.702;5.230;2023-09-07T14:08:43;6.90;;;4.40;;
27412;SDS011;14871;52.702;5.230;2023-09-07T14:11:10;6.75;;;5.00;;
27412;SDS011;14871;52.702;5.230;2023-09-07T14:13:35;5.07;;;4.57;;
27412;SDS011;14871;52.702;5.230;2023-09-07T14:16:01;7.43;;;4.90;;
27412;SDS011;14871;52.702;5.230;2023-09-07T14:18:27;6.43;;;4.88;;
27412;SDS011;14871;52.702;5.230;2023-09-07T14:20:53;8.88;;;4.88;;
27412;SDS011;14871;52.702;5.230;2023-09-07T14:23:22;7.18;;;4.72;;
27412;SDS011;14871;52.702;5.230;2023-09-07T14:25:48;8.55;;;5.05;;
27412;SDS011;14871;52.702;5.230;2023-09-07T14:28:14;5.22;;;3.97;;
27412;SDS011;14871;52.702;5.230;2023-09-07T14:30:39;6.57;;;4.40;;
27412;SDS011;14871;52.702;5.230;2023-09-07T14:33:05;7.10;;;4.85;;
27412;SDS011;14871;52.702;5.230;2023-09-07T14:35:31;4.90;;;4.32;;
27412;SDS011;14871;52.702;5.230;2023-09-07T14:37:57;5.65;;;5.03;;
27412;SDS011;14871;52.702;5.230;2023-09-07T14:40:22;5.28;;;4.78;;